EDLP Airport Information

Runway Information
Runway 06 Length 7152 ft width 148 ft
Elevation 699 ft Threshold 0 ft Heading 57
Runway 24 Length 7152 ft Width 148 ft
Elevation 674 ft Threshold 0 ft Heading 237
Airport Frequencies
Type ATIS Name ATIS Frequency 125.725 MHZ
Type GND Name GND Frequency 121.925 MHZ
Type INFO Name LANGEN INF Frequency 129.875 MHZ
Type OPS Name DISPATCH Frequency 130.425 MHZ
Type RDR Name LANGEN RAD Frequency 125.225 MHZ
Type TWR Name TWR Frequency 133.375 MHZ
Airport Navaids
Type NDB-DME Name Paderborn/Lippstadt Frequency 354 KHZ
Airport Weather Information & NOTAM
ADDS - METARS form results

(1816 UTC 18 July 2018)
 
METAR text: EDLP 181750Z 32004KT 240V030 CAVOK 23/09 Q1018
Conditions at: EDLP (PADERBORN/LIPPST, DE) observed 1750 UTC 18 July 2018
Temperature: 23.0°C (73°F)
Dewpoint: 9.0°C (48°F) [RH = 41%]
Pressure (altimeter): 30.06 inches Hg (1018.0 mb)
Winds: from the NW (320 degrees) at 5 MPH (4 knots; 2.1 m/s)
Visibility: 6 or more miles (10+ km)
Ceiling: ceiling and visibility are OK
Clouds: unknown
Weather: no significant weather observed at this time

METAR text: EDLP 181720Z 36006KT 310V040 CAVOK 23/09 Q1018
Conditions at: EDLP (PADERBORN/LIPPST, DE) observed 1720 UTC 18 July 2018
Temperature: 23.0°C (73°F)
Dewpoint: 9.0°C (48°F) [RH = 41%]
Pressure (altimeter): 30.06 inches Hg (1018.0 mb)
Winds: from the N (360 degrees) at 7 MPH (6 knots; 3.1 m/s)
Visibility: 6 or more miles (10+ km)
Ceiling: ceiling and visibility are OK
Clouds: unknown
Weather: no significant weather observed at this time